sensor_id;sensor_type;location;lat;lon;timestamp;P1;durP1;ratioP1;P2;durP2;ratioP2
11504;SDS011;5809;53.262;10.408;2023-03-14T00:02:25;6.85;;;1.83;;
11504;SDS011;5809;53.262;10.408;2023-03-14T00:04:53;5.20;;;1.60;;
11504;SDS011;5809;53.262;10.408;2023-03-14T00:07:21;2.47;;;1.88;;
11504;SDS011;5809;53.262;10.408;2023-03-14T00:09:51;5.55;;;1.80;;
11504;SDS011;5809;53.262;10.408;2023-03-14T00:12:18;4.15;;;2.10;;
11504;SDS011;5809;53.262;10.408;2023-03-14T00:14:45;3.60;;;1.60;;
11504;SDS011;5809;53.262;10.408;2023-03-14T00:17:12;4.88;;;1.70;;
11504;SDS011;5809;53.262;10.408;2023-03-14T00:19:39;5.50;;;1.80;;
11504;SDS011;5809;53.262;10.408;2023-03-14T00:22:07;4.78;;;2.00;;
11504;SDS011;5809;53.262;10.408;2023-03-14T00:24:34;4.38;;;1.88;;
11504;SDS011;5809;53.262;10.408;2023-03-14T00:27:02;5.03;;;1.75;;
11504;SDS011;5809;53.262;10.408;2023-03-14T00:29:29;5.32;;;1.92;;
11504;SDS011;5809;53.262;10.408;2023-03-14T00:31:56;4.45;;;2.00;;
11504;SDS011;5809;53.262;10.408;2023-03-14T00:34:23;4.25;;;1.77;;
11504;SDS011;5809;53.262;10.408;2023-03-14T00:36:55;4.47;;;2.10;;
11504;SDS011;5809;53.262;10.408;2023-03-14T00:39:22;2.67;;;1.83;;
11504;SDS011;5809;53.262;10.408;2023-03-14T00:41:49;5.95;;;1.98;;
11504;SDS011;5809;53.262;10.408;2023-03-14T00:44:17;3.55;;;1.90;;
11504;SDS011;5809;53.262;10.408;2023-03-14T00:46:44;4.80;;;2.33;;
11504;SDS011;5809;53.262;10.408;2023-03-14T00:49:12;7.30;;;2.30;;
11504;SDS011;5809;53.262;10.408;2023-03-14T00:51:38;5.80;;;2.35;;
11504;SDS011;5809;53.262;10.408;2023-03-14T00:54:05;6.63;;;2.60;;
11504;SDS011;5809;53.262;10.408;2023-03-14T00:56:33;5.70;;;2.00;;
11504;SDS011;5809;53.262;10.408;2023-03-14T00:59:00;3.33;;;1.73;;
11504;SDS011;5809;53.262;10.408;2023-03-14T01:01:29;5.40;;;2.15;;
11504;SDS011;5809;53.262;10.408;2023-03-14T01:03:56;5.43;;;2.42;;
11504;SDS011;5809;53.262;10.408;2023-03-14T01:06:24;6.93;;;2.60;;
11504;SDS011;5809;53.262;10.408;2023-03-14T01:08:51;4.72;;;2.05;;
11504;SDS011;5809;53.262;10.408;2023-03-14T01:11:20;3.88;;;1.90;;
11504;SDS011;5809;53.262;10.408;2023-03-14T01:13:48;7.32;;;2.50;;
11504;SDS011;5809;53.262;10.408;2023-03-14T01:16:15;6.63;;;2.20;;
11504;SDS011;5809;53.262;10.408;2023-03-14T01:18:44;3.83;;;2.35;;
11504;SDS011;5809;53.262;10.408;2023-03-14T01:21:12;5.07;;;2.38;;
11504;SDS011;5809;53.262;10.408;2023-03-14T01:23:40;5.57;;;2.20;;
11504;SDS011;5809;53.262;10.408;2023-03-14T01:26:08;5.63;;;2.30;;
11504;SDS011;5809;53.262;10.408;2023-03-14T01:28:36;6.22;;;2.20;;
11504;SDS011;5809;53.262;10.408;2023-03-14T01:31:03;4.57;;;2.10;;
11504;SDS011;5809;53.262;10.408;2023-03-14T01:33:31;4.80;;;1.95;;
11504;SDS011;5809;53.262;10.408;2023-03-14T01:35:59;4.32;;;2.00;;
11504;SDS011;5809;53.262;10.408;2023-03-14T01:38:27;7.22;;;2.10;;
11504;SDS011;5809;53.262;10.408;2023-03-14T01:40:54;5.57;;;2.03;;
11504;SDS011;5809;53.262;10.408;2023-03-14T01:43:21;3.83;;;2.03;;
11504;SDS011;5809;53.262;10.408;2023-03-14T01:48:35;4.57;;;2.33;;
11504;SDS011;5809;53.262;10.408;2023-03-14T01:51:04;5.03;;;2.40;;
11504;SDS011;5809;53.262;10.408;2023-03-14T01:53:35;5.88;;;2.13;;
11504;SDS011;5809;53.262;10.408;2023-03-14T01:56:05;4.25;;;1.90;;
11504;SDS011;5809;53.262;10.408;2023-03-14T01:58:32;5.20;;;2.20;;
11504;SDS011;5809;53.262;10.408;2023-03-14T02:01:00;5.32;;;2.10;;
11504;SDS011;5809;53.262;10.408;2023-03-14T02:03:29;7.70;;;2.47;;
11504;SDS011;5809;53.262;10.408;2023-03-14T02:05:59;4.38;;;2.08;;
11504;SDS011;5809;53.262;10.408;2023-03-14T02:08:32;4.60;;;2.28;;
11504;SDS011;5809;53.262;10.408;2023-03-14T02:11:01;4.70;;;1.95;;
11504;SDS011;5809;53.262;10.408;2023-03-14T02:13:28;5.05;;;2.30;;
11504;SDS011;5809;53.262;10.408;2023-03-14T02:15:55;4.88;;;2.08;;
11504;SDS011;5809;53.262;10.408;2023-03-14T02:18:22;5.32;;;2.42;;
11504;SDS011;5809;53.262;10.408;2023-03-14T02:20:51;6.28;;;2.45;;
11504;SDS011;5809;53.262;10.408;2023-03-14T02:23:27;7.55;;;2.20;;
11504;SDS011;5809;53.262;10.408;2023-03-14T02:26:03;4.60;;;2.67;;
11504;SDS011;5809;53.262;10.408;2023-03-14T02:28:36;4.60;;;2.42;;
11504;SDS011;5809;53.262;10.408;2023-03-14T02:31:03;3.80;;;2.38;;
11504;SDS011;5809;53.262;10.408;2023-03-14T02:33:31;4.03;;;2.58;;
11504;SDS011;5809;53.262;10.408;2023-03-14T02:35:59;8.20;;;2.30;;
11504;SDS011;5809;53.262;10.408;2023-03-14T02:38:27;4.57;;;2.35;;
11504;SDS011;5809;53.262;10.408;2023-03-14T02:40:56;7.45;;;2.30;;
11504;SDS011;5809;53.262;10.408;2023-03-14T02:43:23;5.95;;;2.95;;
11504;SDS011;5809;53.262;10.408;2023-03-14T02:45:52;5.35;;;2.95;;
11504;SDS011;5809;53.262;10.408;2023-03-14T02:48:20;6.13;;;2.42;;
11504;SDS011;5809;53.262;10.408;2023-03-14T02:50:48;7.18;;;2.75;;
11504;SDS011;5809;53.262;10.408;2023-03-14T02:53:17;5.82;;;2.28;;
11504;SDS011;5809;53.262;10.408;2023-03-14T02:55:45;7.80;;;3.03;;
11504;SDS011;5809;53.262;10.408;2023-03-14T02:58:13;8.07;;;3.17;;
11504;SDS011;5809;53.262;10.408;2023-03-14T03:00:40;5.50;;;2.47;;
11504;SDS011;5809;53.262;10.408;2023-03-14T03:03:08;7.75;;;2.60;;
11504;SDS011;5809;53.262;10.408;2023-03-14T03:05:35;5.38;;;2.45;;
11504;SDS011;5809;53.262;10.408;2023-03-14T03:08:03;10.00;;;2.63;;
11504;SDS011;5809;53.262;10.408;2023-03-14T03:10:30;5.97;;;2.58;;
11504;SDS011;5809;53.262;10.408;2023-03-14T03:12:57;5.10;;;2.33;;
11504;SDS011;5809;53.262;10.408;2023-03-14T03:15:25;6.32;;;2.42;;
11504;SDS011;5809;53.262;10.408;2023-03-14T03:17:52;3.80;;;2.17;;
11504;SDS011;5809;53.262;10.408;2023-03-14T03:20:21;8.73;;;2.55;;
11504;SDS011;5809;53.262;10.408;2023-03-14T03:22:48;6.13;;;2.30;;
11504;SDS011;5809;53.262;10.408;2023-03-14T03:25:15;7.00;;;2.60;;
11504;SDS011;5809;53.262;10.408;2023-03-14T03:27:42;7.03;;;2.17;;
11504;SDS011;5809;53.262;10.408;2023-03-14T03:30:10;5.20;;;2.28;;
11504;SDS011;5809;53.262;10.408;2023-03-14T03:32:37;5.00;;;2.35;;
11504;SDS011;5809;53.262;10.408;2023-03-14T03:35:05;4.68;;;1.95;;
11504;SDS011;5809;53.262;10.408;2023-03-14T03:37:34;7.05;;;2.10;;
11504;SDS011;5809;53.262;10.408;2023-03-14T03:40:01;4.45;;;2.15;;
11504;SDS011;5809;53.262;10.408;2023-03-14T03:42:31;6.88;;;2.00;;
11504;SDS011;5809;53.262;10.408;2023-03-14T03:44:59;5.93;;;2.30;;
11504;SDS011;5809;53.262;10.408;2023-03-14T03:47:26;4.40;;;2.17;;
11504;SDS011;5809;53.262;10.408;2023-03-14T03:49:53;7.90;;;2.28;;
11504;SDS011;5809;53.262;10.408;2023-03-14T03:52:21;4.85;;;2.10;;
11504;SDS011;5809;53.262;10.408;2023-03-14T03:54:49;7.95;;;1.90;;
11504;SDS011;5809;53.262;10.408;2023-03-14T03:57:16;4.88;;;1.90;;
11504;SDS011;5809;53.262;10.408;2023-03-14T03:59:43;6.30;;;2.30;;
11504;SDS011;5809;53.262;10.408;2023-03-14T04:02:10;6.75;;;1.98;;
11504;SDS011;5809;53.262;10.408;2023-03-14T04:04:37;4.80;;;2.50;;
11504;SDS011;5809;53.262;10.408;2023-03-14T04:07:04;5.05;;;2.05;;
11504;SDS011;5809;53.262;10.408;2023-03-14T04:09:32;6.40;;;1.98;;
11504;SDS011;5809;53.262;10.408;2023-03-14T04:12:00;6.47;;;2.20;;
11504;SDS011;5809;53.262;10.408;2023-03-14T04:14:27;6.35;;;2.17;;
11504;SDS011;5809;53.262;10.408;2023-03-14T04:16:54;6.30;;;2.25;;
11504;SDS011;5809;53.262;10.408;2023-03-14T04:19:21;7.28;;;2.28;;
11504;SDS011;5809;53.262;10.408;2023-03-14T04:21:49;9.02;;;3.38;;
11504;SDS011;5809;53.262;10.408;2023-03-14T04:24:16;11.77;;;5.68;;
11504;SDS011;5809;53.262;10.408;2023-03-14T04:26:43;5.85;;;2.75;;
11504;SDS011;5809;53.262;10.408;2023-03-14T04:29:11;7.90;;;2.38;;
11504;SDS011;5809;53.262;10.408;2023-03-14T04:31:38;5.68;;;2.40;;
11504;SDS011;5809;53.262;10.408;2023-03-14T04:34:05;7.85;;;2.25;;
11504;SDS011;5809;53.262;10.408;2023-03-14T04:36:32;4.30;;;2.15;;
11504;SDS011;5809;53.262;10.408;2023-03-14T04:38:59;6.07;;;2.10;;
11504;SDS011;5809;53.262;10.408;2023-03-14T04:41:26;4.72;;;2.28;;
11504;SDS011;5809;53.262;10.408;2023-03-14T04:43:54;4.70;;;2.17;;
11504;SDS011;5809;53.262;10.408;2023-03-14T04:46:22;5.90;;;2.00;;
11504;SDS011;5809;53.262;10.408;2023-03-14T04:48:49;9.13;;;1.85;;
11504;SDS011;5809;53.262;10.408;2023-03-14T04:51:16;5.47;;;2.03;;
11504;SDS011;5809;53.262;10.408;2023-03-14T04:53:43;7.88;;;2.20;;
11504;SDS011;5809;53.262;10.408;2023-03-14T04:56:10;4.85;;;1.80;;
11504;SDS011;5809;53.262;10.408;2023-03-14T04:58:38;5.45;;;2.20;;
11504;SDS011;5809;53.262;10.408;2023-03-14T05:01:05;4.90;;;1.88;;
11504;SDS011;5809;53.262;10.408;2023-03-14T05:03:34;5.07;;;1.95;;
11504;SDS011;5809;53.262;10.408;2023-03-14T05:06:03;6.38;;;1.77;;
11504;SDS011;5809;53.262;10.408;2023-03-14T05:08:30;6.05;;;1.60;;
11504;SDS011;5809;53.262;10.408;2023-03-14T05:10:58;3.05;;;1.42;;
11504;SDS011;5809;53.262;10.408;2023-03-14T05:13:25;5.63;;;1.77;;
11504;SDS011;5809;53.262;10.408;2023-03-14T05:15:52;5.40;;;1.73;;
11504;SDS011;5809;53.262;10.408;2023-03-14T05:18:20;5.38;;;1.50;;
11504;SDS011;5809;53.262;10.408;2023-03-14T05:20:49;3.85;;;1.63;;
11504;SDS011;5809;53.262;10.408;2023-03-14T05:23:16;4.40;;;2.00;;
11504;SDS011;5809;53.262;10.408;2023-03-14T05:25:44;2.58;;;1.33;;
11504;SDS011;5809;53.262;10.408;2023-03-14T05:28:11;3.53;;;1.42;;
11504;SDS011;5809;53.262;10.408;2023-03-14T05:30:38;5.20;;;1.77;;
11504;SDS011;5809;53.262;10.408;2023-03-14T05:33:05;3.83;;;1.70;;
11504;SDS011;5809;53.262;10.408;2023-03-14T05:35:32;4.78;;;1.70;;
11504;SDS011;5809;53.262;10.408;2023-03-14T05:38:01;5.50;;;1.65;;
11504;SDS011;5809;53.262;10.408;2023-03-14T05:40:28;2.95;;;1.40;;
11504;SDS011;5809;53.262;10.408;2023-03-14T05:42:55;4.00;;;1.48;;
11504;SDS011;5809;53.262;10.408;2023-03-14T05:45:23;6.47;;;2.17;;
11504;SDS011;5809;53.262;10.408;2023-03-14T05:47:50;7.28;;;1.92;;
11504;SDS011;5809;53.262;10.408;2023-03-14T05:50:17;4.25;;;2.00;;
11504;SDS011;5809;53.262;10.408;2023-03-14T05:52:44;4.00;;;1.85;;
11504;SDS011;5809;53.262;10.408;2023-03-14T05:55:12;5.15;;;2.08;;
11504;SDS011;5809;53.262;10.408;2023-03-14T05:57:39;4.93;;;1.98;;
11504;SDS011;5809;53.262;10.408;2023-03-14T06:00:07;3.95;;;1.88;;
11504;SDS011;5809;53.262;10.408;2023-03-14T06:02:34;6.68;;;2.33;;
11504;SDS011;5809;53.262;10.408;2023-03-14T06:05:02;6.53;;;2.08;;
11504;SDS011;5809;53.262;10.408;2023-03-14T06:07:29;5.15;;;2.10;;
11504;SDS011;5809;53.262;10.408;2023-03-14T06:09:56;4.50;;;1.80;;
11504;SDS011;5809;53.262;10.408;2023-03-14T06:12:24;5.03;;;2.40;;
11504;SDS011;5809;53.262;10.408;2023-03-14T06:14:51;4.97;;;2.10;;
11504;SDS011;5809;53.262;10.408;2023-03-14T06:17:18;7.57;;;2.03;;
11504;SDS011;5809;53.262;10.408;2023-03-14T06:19:46;4.57;;;1.90;;
11504;SDS011;5809;53.262;10.408;2023-03-14T06:22:12;4.40;;;1.73;;
11504;SDS011;5809;53.262;10.408;2023-03-14T06:24:40;4.82;;;1.90;;
11504;SDS011;5809;53.262;10.408;2023-03-14T06:27:07;3.50;;;1.80;;
11504;SDS011;5809;53.262;10.408;2023-03-14T06:29:35;3.97;;;1.77;;
11504;SDS011;5809;53.262;10.408;2023-03-14T06:32:03;2.30;;;1.50;;
11504;SDS011;5809;53.262;10.408;2023-03-14T06:34:30;5.68;;;1.60;;
11504;SDS011;5809;53.262;10.408;2023-03-14T06:36:57;4.30;;;1.73;;
11504;SDS011;5809;53.262;10.408;2023-03-14T06:39:24;4.53;;;1.63;;
11504;SDS011;5809;53.262;10.408;2023-03-14T06:41:51;6.25;;;1.60;;
11504;SDS011;5809;53.262;10.408;2023-03-14T06:44:18;3.42;;;1.80;;
11504;SDS011;5809;53.262;10.408;2023-03-14T06:46:47;2.60;;;1.40;;
11504;SDS011;5809;53.262;10.408;2023-03-14T06:49:14;5.10;;;1.90;;
11504;SDS011;5809;53.262;10.408;2023-03-14T06:51:41;2.22;;;1.40;;
11504;SDS011;5809;53.262;10.408;2023-03-14T06:54:09;4.80;;;1.60;;
11504;SDS011;5809;53.262;10.408;2023-03-14T06:56:36;4.20;;;1.77;;
11504;SDS011;5809;53.262;10.408;2023-03-14T06:59:03;3.55;;;1.90;;
11504;SDS011;5809;53.262;10.408;2023-03-14T07:01:31;3.78;;;1.88;;
11504;SDS011;5809;53.262;10.408;2023-03-14T07:04:01;3.95;;;1.77;;
11504;SDS011;5809;53.262;10.408;2023-03-14T07:06:28;6.55;;;2.08;;
11504;SDS011;5809;53.262;10.408;2023-03-14T07:08:56;7.53;;;1.83;;
11504;SDS011;5809;53.262;10.408;2023-03-14T07:11:23;3.17;;;1.77;;
11504;SDS011;5809;53.262;10.408;2023-03-14T07:13:50;4.63;;;1.90;;
11504;SDS011;5809;53.262;10.408;2023-03-14T07:16:18;5.20;;;1.60;;
11504;SDS011;5809;53.262;10.408;2023-03-14T07:18:45;5.78;;;2.22;;
11504;SDS011;5809;53.262;10.408;2023-03-14T07:21:13;3.70;;;2.10;;
11504;SDS011;5809;53.262;10.408;2023-03-14T07:23:40;2.83;;;1.92;;
11504;SDS011;5809;53.262;10.408;2023-03-14T07:26:08;4.55;;;2.45;;
11504;SDS011;5809;53.262;10.408;2023-03-14T07:28:35;4.82;;;2.50;;
11504;SDS011;5809;53.262;10.408;2023-03-14T07:31:02;5.90;;;2.70;;
11504;SDS011;5809;53.262;10.408;2023-03-14T07:33:29;8.45;;;2.63;;
11504;SDS011;5809;53.262;10.408;2023-03-14T07:35:56;5.80;;;2.42;;
11504;SDS011;5809;53.262;10.408;2023-03-14T07:38:24;5.75;;;2.78;;
11504;SDS011;5809;53.262;10.408;2023-03-14T07:40:57;6.88;;;2.60;;
11504;SDS011;5809;53.262;10.408;2023-03-14T07:43:25;7.65;;;3.05;;
11504;SDS011;5809;53.262;10.408;2023-03-14T07:45:52;5.75;;;2.15;;
11504;SDS011;5809;53.262;10.408;2023-03-14T07:48:19;5.85;;;2.95;;
11504;SDS011;5809;53.262;10.408;2023-03-14T07:50:48;8.18;;;2.90;;
11504;SDS011;5809;53.262;10.408;2023-03-14T07:53:15;5.40;;;2.80;;
11504;SDS011;5809;53.262;10.408;2023-03-14T07:55:43;4.13;;;2.13;;
11504;SDS011;5809;53.262;10.408;2023-03-14T07:58:11;5.70;;;2.75;;
11504;SDS011;5809;53.262;10.408;2023-03-14T08:00:38;4.63;;;2.35;;
11504;SDS011;5809;53.262;10.408;2023-03-14T08:03:05;4.95;;;2.63;;
11504;SDS011;5809;53.262;10.408;2023-03-14T08:05:33;5.05;;;2.85;;
11504;SDS011;5809;53.262;10.408;2023-03-14T08:08:01;5.85;;;2.88;;
11504;SDS011;5809;53.262;10.408;2023-03-14T08:10:28;8.32;;;6.63;;
11504;SDS011;5809;53.262;10.408;2023-03-14T08:12:57;13.48;;;7.47;;
11504;SDS011;5809;53.262;10.408;2023-03-14T08:15:25;10.40;;;2.78;;
11504;SDS011;5809;53.262;10.408;2023-03-14T08:17:52;6.32;;;2.78;;
11504;SDS011;5809;53.262;10.408;2023-03-14T08:20:20;7.43;;;2.47;;
11504;SDS011;5809;53.262;10.408;2023-03-14T08:22:48;5.78;;;2.70;;
11504;SDS011;5809;53.262;10.408;2023-03-14T08:25:15;6.03;;;2.90;;
11504;SDS011;5809;53.262;10.408;2023-03-14T08:27:43;5.80;;;2.85;;
11504;SDS011;5809;53.262;10.408;2023-03-14T08:30:12;8.55;;;3.03;;
11504;SDS011;5809;53.262;10.408;2023-03-14T08:32:40;5.65;;;2.83;;
11504;SDS011;5809;53.262;10.408;2023-03-14T08:35:08;9.00;;;2.80;;
11504;SDS011;5809;53.262;10.408;2023-03-14T08:37:35;6.60;;;3.03;;
11504;SDS011;5809;53.262;10.408;2023-03-14T08:40:02;6.68;;;3.55;;
11504;SDS011;5809;53.262;10.408;2023-03-14T08:42:31;9.60;;;2.95;;
11504;SDS011;5809;53.262;10.408;2023-03-14T08:44:58;5.82;;;3.05;;
11504;SDS011;5809;53.262;10.408;2023-03-14T08:47:27;5.30;;;2.78;;
11504;SDS011;5809;53.262;10.408;2023-03-14T08:49:54;5.55;;;2.70;;
11504;SDS011;5809;53.262;10.408;2023-03-14T08:52:21;6.00;;;2.78;;
11504;SDS011;5809;53.262;10.408;2023-03-14T08:54:48;6.47;;;2.70;;
11504;SDS011;5809;53.262;10.408;2023-03-14T08:57:15;6.60;;;2.42;;
11504;SDS011;5809;53.262;10.408;2023-03-14T08:59:42;4.72;;;2.42;;
11504;SDS011;5809;53.262;10.408;2023-03-14T09:02:10;4.70;;;2.20;;
11504;SDS011;5809;53.262;10.408;2023-03-14T09:04:39;8.15;;;2.63;;
11504;SDS011;5809;53.262;10.408;2023-03-14T09:07:06;4.38;;;2.15;;
11504;SDS011;5809;53.262;10.408;2023-03-14T09:09:33;6.85;;;1.77;;
11504;SDS011;5809;53.262;10.408;2023-03-14T09:12:00;5.90;;;2.22;;
11504;SDS011;5809;53.262;10.408;2023-03-14T09:14:27;4.85;;;2.08;;
11504;SDS011;5809;53.262;10.408;2023-03-14T09:16:54;6.80;;;2.78;;
11504;SDS011;5809;53.262;10.408;2023-03-14T09:19:21;4.75;;;2.05;;
11504;SDS011;5809;53.262;10.408;2023-03-14T09:21:50;5.43;;;1.90;;
11504;SDS011;5809;53.262;10.408;2023-03-14T09:24:16;4.75;;;1.75;;
11504;SDS011;5809;53.262;10.408;2023-03-14T09:26:44;3.38;;;1.92;;
11504;SDS011;5809;53.262;10.408;2023-03-14T09:29:11;4.13;;;1.80;;
11504;SDS011;5809;53.262;10.408;2023-03-14T09:31:39;4.55;;;1.75;;
11504;SDS011;5809;53.262;10.408;2023-03-14T09:34:05;5.40;;;2.05;;
11504;SDS011;5809;53.262;10.408;2023-03-14T09:36:33;3.47;;;1.67;;
11504;SDS011;5809;53.262;10.408;2023-03-14T09:39:01;4.80;;;1.40;;
11504;SDS011;5809;53.262;10.408;2023-03-14T09:41:30;4.68;;;1.45;;
11504;SDS011;5809;53.262;10.408;2023-03-14T09:44:01;2.30;;;1.25;;
11504;SDS011;5809;53.262;10.408;2023-03-14T09:46:29;3.05;;;1.33;;
11504;SDS011;5809;53.262;10.408;2023-03-14T09:48:59;5.47;;;1.83;;
11504;SDS011;5809;53.262;10.408;2023-03-14T09:51:26;3.95;;;1.40;;
11504;SDS011;5809;53.262;10.408;2023-03-14T09:53:54;4.10;;;1.67;;
11504;SDS011;5809;53.262;10.408;2023-03-14T09:56:23;4.05;;;1.20;;
11504;SDS011;5809;53.262;10.408;2023-03-14T09:58:52;5.15;;;1.75;;
11504;SDS011;5809;53.262;10.408;2023-03-14T10:01:22;3.83;;;1.25;;
11504;SDS011;5809;53.262;10.408;2023-03-14T10:03:51;4.65;;;1.27;;
11504;SDS011;5809;53.262;10.408;2023-03-14T10:06:21;3.47;;;1.30;;
11504;SDS011;5809;53.262;10.408;2023-03-14T10:08:52;2.63;;;1.35;;
11504;SDS011;5809;53.262;10.408;2023-03-14T10:11:23;2.30;;;1.13;;
11504;SDS011;5809;53.262;10.408;2023-03-14T10:14:01;4.28;;;1.20;;
11504;SDS011;5809;53.262;10.408;2023-03-14T10:16:31;5.68;;;1.30;;
11504;SDS011;5809;53.262;10.408;2023-03-14T10:19:01;3.00;;;1.08;;
11504;SDS011;5809;53.262;10.408;2023-03-14T10:21:29;3.28;;;1.40;;
11504;SDS011;5809;53.262;10.408;2023-03-14T10:24:07;2.50;;;1.05;;
11504;SDS011;5809;53.262;10.408;2023-03-14T10:26:35;2.88;;;1.10;;
11504;SDS011;5809;53.262;10.408;2023-03-14T10:29:04;1.80;;;0.90;;
11504;SDS011;5809;53.262;10.408;2023-03-14T10:31:45;2.45;;;0.80;;
11504;SDS011;5809;53.262;10.408;2023-03-14T10:34:16;2.45;;;1.25;;
11504;SDS011;5809;53.262;10.408;2023-03-14T10:36:44;4.15;;;1.13;;
11504;SDS011;5809;53.262;10.408;2023-03-14T10:39:24;1.90;;;0.80;;
11504;SDS011;5809;53.262;10.408;2023-03-14T10:41:54;2.45;;;1.17;;
11504;SDS011;5809;53.262;10.408;2023-03-14T10:44:24;3.33;;;1.02;;
11504;SDS011;5809;53.262;10.408;2023-03-14T10:46:55;3.15;;;1.10;;
11504;SDS011;5809;53.262;10.408;2023-03-14T10:49:26;2.35;;;1.10;;
11504;SDS011;5809;53.262;10.408;2023-03-14T10:51:54;3.13;;;1.38;;
11504;SDS011;5809;53.262;10.408;2023-03-14T10:54:22;3.47;;;1.27;;
11504;SDS011;5809;53.262;10.408;2023-03-14T10:56:57;3.38;;;2.00;;
11504;SDS011;5809;53.262;10.408;2023-03-14T10:59:25;5.95;;;3.15;;
11504;SDS011;5809;53.262;10.408;2023-03-14T11:01:58;4.80;;;1.50;;
11504;SDS011;5809;53.262;10.408;2023-03-14T11:04:40;2.50;;;1.10;;
11504;SDS011;5809;53.262;10.408;2023-03-14T11:07:20;2.13;;;1.00;;
11504;SDS011;5809;53.262;10.408;2023-03-14T11:09:54;2.67;;;1.30;;
11504;SDS011;5809;53.262;10.408;2023-03-14T11:12:33;1.77;;;1.43;;
11504;SDS011;5809;53.262;10.408;2023-03-14T11:15:09;4.43;;;2.00;;
11504;SDS011;5809;53.262;10.408;2023-03-14T11:17:46;3.57;;;2.73;;
11504;SDS011;5809;53.262;10.408;2023-03-14T11:20:31;3.53;;;2.60;;
11504;SDS011;5809;53.262;10.408;2023-03-14T11:23:02;5.23;;;3.30;;
11504;SDS011;5809;53.262;10.408;2023-03-14T11:25:31;5.93;;;4.87;;
11504;SDS011;5809;53.262;10.408;2023-03-14T11:28:04;6.00;;;4.40;;
11504;SDS011;5809;53.262;10.408;2023-03-14T11:30:39;7.77;;;5.80;;
11504;SDS011;5809;53.262;10.408;2023-03-14T11:33:13;6.13;;;5.53;;
11504;SDS011;5809;53.262;10.408;2023-03-14T11:35:42;11.47;;;6.90;;
11504;SDS011;5809;53.262;10.408;2023-03-14T11:38:18;6.30;;;5.63;;
11504;SDS011;5809;53.262;10.408;2023-03-14T11:40:46;3.40;;;3.00;;
11504;SDS011;5809;53.262;10.408;2023-03-14T11:43:20;2.27;;;1.47;;
11504;SDS011;5809;53.262;10.408;2023-03-14T11:45:51;1.57;;;1.10;;
11504;SDS011;5809;53.262;10.408;2023-03-14T11:48:24;2.33;;;1.10;;
11504;SDS011;5809;53.262;10.408;2023-03-14T11:50:59;3.00;;;0.87;;
11504;SDS011;5809;53.262;10.408;2023-03-14T11:53:33;2.07;;;0.90;;
11504;SDS011;5809;53.262;10.408;2023-03-14T11:56:02;1.13;;;0.83;;
11504;SDS011;5809;53.262;10.408;2023-03-14T11:58:34;1.63;;;1.00;;
11504;SDS011;5809;53.262;10.408;2023-03-14T12:01:08;2.37;;;0.93;;
11504;SDS011;5809;53.262;10.408;2023-03-14T12:03:45;7.03;;;4.60;;
11504;SDS011;5809;53.262;10.408;2023-03-14T12:06:13;1.53;;;1.10;;
11504;SDS011;5809;53.262;10.408;2023-03-14T12:08:45;3.13;;;1.00;;
11504;SDS011;5809;53.262;10.408;2023-03-14T12:11:15;1.10;;;0.90;;
11504;SDS011;5809;53.262;10.408;2023-03-14T12:13:47;1.83;;;0.87;;
11504;SDS011;5809;53.262;10.408;2023-03-14T12:19:31;2.57;;;1.40;;
11504;SDS011;5809;53.262;10.408;2023-03-14T12:24:50;2.77;;;1.00;;
11504;SDS011;5809;53.262;10.408;2023-03-14T12:30:15;2.87;;;1.00;;
11504;SDS011;5809;53.262;10.408;2023-03-14T12:32:58;3.97;;;1.30;;
11504;SDS011;5809;53.262;10.408;2023-03-14T12:35:37;5.07;;;1.37;;
11504;SDS011;5809;53.262;10.408;2023-03-14T12:38:09;8.00;;;1.60;;
11504;SDS011;5809;53.262;10.408;2023-03-14T12:40:37;5.00;;;1.40;;
11504;SDS011;5809;53.262;10.408;2023-03-14T12:43:11;5.67;;;1.37;;
11504;SDS011;5809;53.262;10.408;2023-03-14T12:46:14;7.73;;;1.97;;
11504;SDS011;5809;53.262;10.408;2023-03-14T12:48:43;9.73;;;1.57;;
11504;SDS011;5809;53.262;10.408;2023-03-14T12:51:12;12.97;;;5.87;;
11504;SDS011;5809;53.262;10.408;2023-03-14T12:53:46;8.33;;;4.00;;
11504;SDS011;5809;53.262;10.408;2023-03-14T12:56:19;8.00;;;1.87;;
11504;SDS011;5809;53.262;10.408;2023-03-14T12:58:54;4.33;;;1.30;;
11504;SDS011;5809;53.262;10.408;2023-03-14T13:01:28;6.70;;;1.50;;
11504;SDS011;5809;53.262;10.408;2023-03-14T13:03:58;4.40;;;1.50;;
11504;SDS011;5809;53.262;10.408;2023-03-14T13:06:44;6.83;;;1.47;;
11504;SDS011;5809;53.262;10.408;2023-03-14T13:09:52;7.20;;;1.63;;
11504;SDS011;5809;53.262;10.408;2023-03-14T13:12:34;7.17;;;1.60;;
11504;SDS011;5809;53.262;10.408;2023-03-14T13:15:21;6.83;;;1.70;;
11504;SDS011;5809;53.262;10.408;2023-03-14T13:27:01;10.00;;;2.00;;
11504;SDS011;5809;53.262;10.408;2023-03-14T13:30:00;8.20;;;1.90;;
11504;SDS011;5809;53.262;10.408;2023-03-14T13:32:42;7.20;;;1.70;;
11504;SDS011;5809;53.262;10.408;2023-03-14T13:39:01;7.10;;;1.70;;
11504;SDS011;5809;53.262;10.408;2023-03-14T13:44:39;9.73;;;2.27;;
11504;SDS011;5809;53.262;10.408;2023-03-14T13:47:37;5.57;;;1.97;;
11504;SDS011;5809;53.262;10.408;2023-03-14T13:50:16;13.47;;;2.57;;
11504;SDS011;5809;53.262;10.408;2023-03-14T13:53:02;9.80;;;2.50;;
11504;SDS011;5809;53.262;10.408;2023-03-14T13:55:48;17.23;;;2.93;;
11504;SDS011;5809;53.262;10.408;2023-03-14T13:58:28;15.33;;;2.90;;
11504;SDS011;5809;53.262;10.408;2023-03-14T14:01:10;15.03;;;2.60;;
11504;SDS011;5809;53.262;10.408;2023-03-14T14:03:54;10.50;;;2.27;;
11504;SDS011;5809;53.262;10.408;2023-03-14T14:07:07;10.37;;;2.30;;
11504;SDS011;5809;53.262;10.408;2023-03-14T14:09:44;8.03;;;2.10;;
11504;SDS011;5809;53.262;10.408;2023-03-14T14:13:25;11.33;;;2.70;;
11504;SDS011;5809;53.262;10.408;2023-03-14T14:15:23;9.13;;;2.37;;
11504;SDS011;5809;53.262;10.408;2023-03-14T14:20:52;9.67;;;2.17;;
11504;SDS011;5809;53.262;10.408;2023-03-14T14:23:26;10.07;;;2.00;;
11504;SDS011;5809;53.262;10.408;2023-03-14T14:26:14;9.23;;;2.07;;
11504;SDS011;5809;53.262;10.408;2023-03-14T14:29:00;6.53;;;1.80;;
11504;SDS011;5809;53.262;10.408;2023-03-14T14:31:32;10.17;;;2.07;;
11504;SDS011;5809;53.262;10.408;2023-03-14T14:34:17;10.27;;;2.37;;
11504;SDS011;5809;53.262;10.408;2023-03-14T14:36:50;12.00;;;2.00;;
11504;SDS011;5809;53.262;10.408;2023-03-14T14:39:27;10.40;;;2.17;;
11504;SDS011;5809;53.262;10.408;2023-03-14T14:42:50;10.10;;;1.83;;
11504;SDS011;5809;53.262;10.408;2023-03-14T14:45:05;11.13;;;1.87;;
11504;SDS011;5809;53.262;10.408;2023-03-14T14:48:40;8.43;;;1.80;;
11504;SDS011;5809;53.262;10.408;2023-03-14T14:51:10;7.83;;;2.27;;
11504;SDS011;5809;53.262;10.408;2023-03-14T14:56:53;10.07;;;2.30;;
11504;SDS011;5809;53.262;10.408;2023-03-14T14:59:56;11.20;;;2.10;;
11504;SDS011;5809;53.262;10.408;2023-03-14T15:03:15;9.67;;;1.77;;
11504;SDS011;5809;53.262;10.408;2023-03-14T15:05:39;5.77;;;1.63;;
11504;SDS011;5809;53.262;10.408;2023-03-14T15:08:23;8.83;;;1.90;;
11504;SDS011;5809;53.262;10.408;2023-03-14T15:12:01;7.70;;;2.17;;
11504;SDS011;5809;53.262;10.408;2023-03-14T15:17:20;7.93;;;1.57;;
11504;SDS011;5809;53.262;10.408;2023-03-14T15:20:03;8.07;;;1.43;;
11504;SDS011;5809;53.262;10.408;2023-03-14T15:23:00;8.73;;;2.00;;
11504;SDS011;5809;53.262;10.408;2023-03-14T15:25:41;7.93;;;1.63;;
11504;SDS011;5809;53.262;10.408;2023-03-14T15:28:28;9.80;;;1.90;;
11504;SDS011;5809;53.262;10.408;2023-03-14T15:31:20;10.73;;;1.93;;
11504;SDS011;5809;53.262;10.408;2023-03-14T15:37:17;10.23;;;1.97;;
11504;SDS011;5809;53.262;10.408;2023-03-14T15:40:28;8.10;;;1.93;;
11504;SDS011;5809;53.262;10.408;2023-03-14T15:43:24;7.40;;;1.67;;
11504;SDS011;5809;53.262;10.408;2023-03-14T15:48:38;8.83;;;1.70;;
11504;SDS011;5809;53.262;10.408;2023-03-14T15:51:41;13.83;;;2.00;;
11504;SDS011;5809;53.262;10.408;2023-03-14T15:54:37;6.73;;;1.50;;